Time;durP1;ratioP1;P1;durP2;ratioP2;P2;SDS_P1;SDS_P2;PMS_P1;PMS_P2;Temp;Humidity;BMP_temperature;BMP_pressure;BME280_temperature;BME280_humidity;BME280_pressure;Samples;Min_cycle;Max_cycle;Signal;HPM_P1;HPM_P2
2022/03/06 00:00:51;;;;;;;2.28;2.10;;;2.50;66.30;;;;;;635987;226;26804;-72
2022/03/06 00:03:19;;;;;;;2.12;2.03;;;2.50;66.30;;;;;;635869;226;26613;-72
2022/03/06 00:05:48;;;;;;;2.37;2.03;;;2.60;66.50;;;;;;635972;226;26598;-72
2022/03/06 00:08:14;;;;;;;2.80;1.92;;;2.60;66.50;;;;;;635610;226;26593;-72
2022/03/06 00:10:41;;;;;;;2.70;2.33;;;2.60;65.50;;;;;;635642;226;26541;-72
2022/03/06 00:13:09;;;;;;;2.47;2.00;;;2.50;65.80;;;;;;635591;225;26814;-72
2022/03/06 00:15:36;;;;;;;2.15;2.00;;;2.50;66.90;;;;;;635669;226;26515;-72
2022/03/06 00:18:03;;;;;;;2.97;2.05;;;2.60;66.20;;;;;;635630;226;26794;-72
2022/03/06 00:20:31;;;;;;;2.10;2.00;;;2.60;65.30;;;;;;635653;222;26538;-72
2022/03/06 00:22:59;;;;;;;2.30;2.05;;;2.60;65.00;;;;;;635595;226;26581;-72
2022/03/06 00:25:27;;;;;;;2.55;1.90;;;2.60;65.50;;;;;;635612;226;26756;-72
2022/03/06 00:27:55;;;;;;;2.20;2.00;;;2.60;65.50;;;;;;635360;226;26501;-72
2022/03/06 00:30:22;;;;;;;1.90;1.80;;;2.60;66.00;;;;;;635303;226;26789;-72
2022/03/06 00:32:49;;;;;;;2.17;1.98;;;2.60;66.20;;;;;;635274;226;26560;-72
2022/03/06 00:35:16;;;;;;;2.25;2.08;;;2.70;65.90;;;;;;635364;226;27206;-73
2022/03/06 00:37:44;;;;;;;2.30;2.20;;;2.70;65.40;;;;;;635331;226;26556;-72
2022/03/06 00:40:11;;;;;;;2.33;2.20;;;2.70;65.50;;;;;;635317;226;26577;-72
2022/03/06 00:42:39;;;;;;;2.20;2.10;;;2.70;65.10;;;;;;635380;226;26568;-72
2022/03/06 00:45:07;;;;;;;2.25;2.00;;;2.70;65.20;;;;;;635362;226;26814;-72
2022/03/06 00:47:34;;;;;;;2.10;2.00;;;2.50;64.70;;;;;;635351;226;26552;-72
2022/03/06 00:50:02;;;;;;;3.58;1.98;;;2.40;65.30;;;;;;635293;226;26552;-72
2022/03/06 00:52:29;;;;;;;2.20;2.10;;;2.50;65.90;;;;;;635299;225;26560;-72
2022/03/06 00:54:56;;;;;;;2.10;1.90;;;2.40;66.00;;;;;;635348;226;26773;-72
2022/03/06 00:57:24;;;;;;;2.25;2.05;;;2.40;65.90;;;;;;635314;226;26584;-72
2022/03/06 00:59:51;;;;;;;2.10;1.90;;;2.50;66.00;;;;;;635374;226;26838;-72
2022/03/06 01:02:19;;;;;;;2.50;2.28;;;2.40;67.00;;;;;;636430;224;26597;-72
2022/03/06 01:04:47;;;;;;;2.12;1.92;;;2.30;65.30;;;;;;636677;226;26540;-72
2022/03/06 01:07:14;;;;;;;2.55;2.33;;;2.30;65.40;;;;;;636365;226;26810;-72
2022/03/06 01:09:41;;;;;;;2.15;1.95;;;2.10;65.80;;;;;;636597;226;26553;-72
2022/03/06 01:12:08;;;;;;;2.20;2.00;;;2.10;67.10;;;;;;636350;225;26826;-72
2022/03/06 01:14:35;;;;;;;2.15;2.05;;;2.10;67.30;;;;;;636348;226;26598;-72
2022/03/06 01:17:03;;;;;;;2.03;1.80;;;2.10;67.70;;;;;;636187;226;26520;-72
2022/03/06 01:19:31;;;;;;;2.00;1.90;;;2.20;68.30;;;;;;635862;226;26593;-72
2022/03/06 01:21:58;;;;;;;1.98;1.87;;;2.20;67.60;;;;;;635598;225;26786;-72
2022/03/06 01:24:25;;;;;;;3.35;2.50;;;2.30;67.60;;;;;;635696;226;26537;-72
2022/03/06 01:26:52;;;;;;;2.40;2.28;;;2.20;66.80;;;;;;635712;226;26783;-72
2022/03/06 01:29:22;;;;;;;2.10;2.00;;;2.40;65.90;;;;;;635621;226;26505;-70
2022/03/06 01:31:48;;;;;;;1.90;1.80;;;2.10;65.80;;;;;;635456;226;26521;-70
2022/03/06 01:34:16;;;;;;;2.42;2.05;;;2.00;66.80;;;;;;635630;226;26546;-70
2022/03/06 01:36:43;;;;;;;2.35;2.15;;;2.00;66.80;;;;;;630571;226;26787;-70
2022/03/06 01:39:11;;;;;;;2.28;2.17;;;1.90;67.30;;;;;;635341;226;26528;-70
2022/03/06 01:41:38;;;;;;;2.22;2.00;;;1.90;67.30;;;;;;635272;226;26746;-70
2022/03/06 01:44:05;;;;;;;2.03;1.92;;;2.00;66.50;;;;;;635343;226;26659;-70
2022/03/06 01:46:32;;;;;;;2.12;2.03;;;2.00;66.40;;;;;;635326;226;26770;-70
2022/03/06 01:49:00;;;;;;;2.55;2.10;;;2.00;67.10;;;;;;635341;226;26524;-70
2022/03/06 01:51:28;;;;;;;2.53;2.03;;;2.00;67.90;;;;;;635334;226;26532;-70
2022/03/06 01:53:56;;;;;;;1.90;1.80;;;2.00;68.50;;;;;;635348;225;26754;-70
2022/03/06 01:56:23;;;;;;;1.85;1.75;;;2.00;68.50;;;;;;635249;226;26773;-70
2022/03/06 01:58:50;;;;;;;2.28;1.60;;;1.80;68.60;;;;;;635311;226;26541;-70
2022/03/06 02:01:18;;;;;;;4.60;2.22;;;1.70;69.00;;;;;;635324;226;27101;-70
2022/03/06 02:03:46;;;;;;;2.22;1.70;;;1.50;69.90;;;;;;635290;226;26545;-72
2022/03/06 02:06:16;;;;;;;2.05;1.95;;;1.70;70.10;;;;;;635335;226;26540;-70
2022/03/06 02:08:41;;;;;;;2.05;1.95;;;1.80;70.20;;;;;;635213;226;26587;-70
2022/03/06 02:11:08;;;;;;;1.95;1.85;;;1.80;69.40;;;;;;635300;226;26541;-70
2022/03/06 02:13:35;;;;;;;2.03;1.92;;;1.90;69.30;;;;;;636262;224;26921;-70
2022/03/06 02:16:02;;;;;;;1.83;1.73;;;2.00;69.30;;;;;;636740;225;26524;-70
2022/03/06 02:18:30;;;;;;;1.80;1.70;;;1.70;68.80;;;;;;636353;226;26827;-70
2022/03/06 02:20:57;;;;;;;2.10;2.00;;;1.70;69.90;;;;;;636121;226;26574;-70
2022/03/06 02:23:26;;;;;;;2.10;1.73;;;1.80;70.10;;;;;;635892;226;26586;-70
2022/03/06 02:25:53;;;;;;;1.83;1.73;;;1.80;70.10;;;;;;635930;226;26558;-70
2022/03/06 02:28:20;;;;;;;1.83;1.73;;;1.60;69.40;;;;;;635977;226;26955;-70
2022/03/06 02:30:48;;;;;;;2.95;2.75;;;1.80;69.70;;;;;;635952;226;26577;-70
2022/03/06 02:33:16;;;;;;;1.83;1.73;;;1.70;69.50;;;;;;635643;225;26537;-70
2022/03/06 02:35:44;;;;;;;1.95;1.85;;;1.70;70.60;;;;;;635663;226;26541;-70
2022/03/06 02:38:11;;;;;;;1.90;1.80;;;1.80;70.10;;;;;;635671;226;26770;-70
2022/03/06 02:40:41;;;;;;;2.00;1.80;;;1.70;69.60;;;;;;635633;226;26533;-70
2022/03/06 02:43:06;;;;;;;2.08;1.98;;;1.50;70.00;;;;;;635446;226;26546;-70
2022/03/06 02:45:34;;;;;;;2.30;1.73;;;1.50;70.30;;;;;;635629;226;26518;-70
2022/03/06 02:48:02;;;;;;;2.22;1.90;;;1.50;70.20;;;;;;635589;226;27191;-70
2022/03/06 02:50:29;;;;;;;2.03;1.92;;;1.50;69.70;;;;;;635427;226;26599;-70
2022/03/06 02:52:56;;;;;;;2.05;1.95;;;1.70;70.10;;;;;;635235;222;26842;-70
2022/03/06 02:55:23;;;;;;;2.00;1.90;;;1.80;68.20;;;;;;635310;226;26529;-70
2022/03/06 02:57:51;;;;;;;1.95;1.80;;;1.70;68.70;;;;;;635363;226;26607;-70
2022/03/06 03:00:18;;;;;;;1.80;1.70;;;1.90;68.60;;;;;;635323;226;26849;-70
2022/03/06 03:02:45;;;;;;;1.65;1.62;;;1.80;68.50;;;;;;635315;226;26596;-70
2022/03/06 03:05:13;;;;;;;1.87;1.77;;;1.90;68.40;;;;;;635136;226;26807;-70
2022/03/06 03:07:41;;;;;;;2.37;1.80;;;1.80;67.40;;;;;;635284;226;26528;-70
2022/03/06 03:10:09;;;;;;;2.40;2.17;;;1.50;68.10;;;;;;635256;226;26537;-70
2022/03/06 03:12:37;;;;;;;1.87;1.77;;;1.60;69.30;;;;;;635139;226;26612;-70
2022/03/06 03:15:05;;;;;;;1.80;1.70;;;1.50;69.00;;;;;;635246;226;26543;-70
2022/03/06 03:17:32;;;;;;;1.92;1.80;;;1.50;69.00;;;;;;635340;226;26603;-70
2022/03/06 03:20:00;;;;;;;1.70;1.60;;;1.50;70.10;;;;;;635353;226;27332;-70
2022/03/06 03:22:27;;;;;;;2.47;1.90;;;1.60;69.40;;;;;;635296;222;26552;-71
2022/03/06 03:24:54;;;;;;;1.90;1.80;;;1.50;68.70;;;;;;636117;224;26813;-70
2022/03/06 03:27:22;;;;;;;2.00;1.87;;;1.60;69.00;;;;;;636711;226;26583;-70
2022/03/06 03:29:50;;;;;;;2.00;1.90;;;1.60;68.30;;;;;;636274;226;26544;-71
2022/03/06 03:32:17;;;;;;;2.10;2.00;;;1.60;68.30;;;;;;636127;226;26797;-71
2022/03/06 03:34:44;;;;;;;1.80;1.70;;;1.50;68.80;;;;;;635937;226;26600;-70
2022/03/06 03:37:12;;;;;;;2.15;1.98;;;1.30;68.00;;;;;;635755;226;26825;-71
2022/03/06 03:39:39;;;;;;;2.00;1.90;;;1.50;68.00;;;;;;635971;226;26587;-70
2022/03/06 03:42:06;;;;;;;2.10;1.90;;;1.40;68.10;;;;;;635906;225;27182;-70
2022/03/06 03:44:34;;;;;;;2.33;2.10;;;1.50;67.80;;;;;;635669;226;27220;-69
2022/03/06 03:47:01;;;;;;;2.15;2.00;;;1.50;67.80;;;;;;635579;226;26820;-70
2022/03/06 03:49:29;;;;;;;2.10;2.00;;;1.40;67.10;;;;;;635638;226;26574;-70
2022/03/06 03:51:57;;;;;;;1.80;1.70;;;1.50;67.50;;;;;;635572;226;26594;-69
2022/03/06 03:54:25;;;;;;;2.25;2.00;;;1.60;66.40;;;;;;635642;226;26543;-70
2022/03/06 03:56:52;;;;;;;7.32;2.12;;;1.60;66.00;;;;;;635641;226;26766;-70
2022/03/06 03:59:20;;;;;;;1.80;1.70;;;1.50;65.30;;;;;;635687;226;26536;-70
2022/03/06 04:01:47;;;;;;;2.03;1.73;;;1.50;65.10;;;;;;635347;226;26921;-70
2022/03/06 04:04:15;;;;;;;1.60;1.50;;;1.40;61.80;;;;;;635269;226;26566;-70
2022/03/06 04:06:43;;;;;;;1.92;1.83;;;1.60;60.90;;;;;;635286;226;26528;-70
2022/03/06 04:09:11;;;;;;;1.75;1.65;;;1.50;61.40;;;;;;635239;226;26509;-69
2022/03/06 04:11:38;;;;;;;1.83;1.73;;;1.50;61.00;;;;;;635130;226;26828;-70
2022/03/06 04:14:05;;;;;;;1.85;1.75;;;1.60;60.60;;;;;;635263;226;26541;-70
2022/03/06 04:16:32;;;;;;;1.60;1.60;;;1.70;61.60;;;;;;635371;226;27230;-70
2022/03/06 04:19:00;;;;;;;1.90;1.80;;;1.40;58.80;;;;;;635305;226;26526;-69
2022/03/06 04:21:28;;;;;;;2.00;1.80;;;1.40;59.00;;;;;;635292;226;26525;-70
2022/03/06 04:23:56;;;;;;;1.90;1.80;;;1.40;59.40;;;;;;635364;226;26602;-70
2022/03/06 04:26:24;;;;;;;2.00;1.90;;;1.40;59.40;;;;;;635311;226;26794;-70
2022/03/06 04:28:51;;;;;;;1.60;1.52;;;1.40;59.40;;;;;;635310;226;26864;-70
2022/03/06 04:31:19;;;;;;;1.70;1.60;;;1.50;59.60;;;;;;635334;226;26548;-71
2022/03/06 04:33:46;;;;;;;2.03;1.92;;;1.60;59.50;;;;;;635380;226;26604;-69
2022/03/06 04:36:14;;;;;;;2.08;1.98;;;1.50;59.50;;;;;;635814;224;26535;-70
2022/03/06 04:38:42;;;;;;;1.90;1.62;;;1.40;59.80;;;;;;636931;225;26594;-69
2022/03/06 04:41:10;;;;;;;1.90;1.80;;;1.40;60.30;;;;;;636417;226;26835;-69
2022/03/06 04:43:37;;;;;;;1.92;1.80;;;1.40;60.50;;;;;;636271;226;26790;-69
2022/03/06 04:46:05;;;;;;;1.70;1.60;;;1.60;60.30;;;;;;636056;226;26568;-70
2022/03/06 04:48:34;;;;;;;1.80;1.70;;;1.60;60.30;;;;;;635993;226;26844;-69
2022/03/06 04:51:02;;;;;;;1.90;1.80;;;1.70;59.00;;;;;;635953;226;26603;-69
2022/03/06 04:53:30;;;;;;;1.83;1.70;;;1.70;59.30;;;;;;635898;225;26553;-70
2022/03/06 04:55:57;;;;;;;2.15;1.70;;;1.70;59.30;;;;;;635579;226;26608;-69
2022/03/06 04:58:24;;;;;;;1.83;1.73;;;1.70;59.20;;;;;;635662;226;26550;-69
2022/03/06 05:00:51;;;;;;;1.85;1.70;;;1.80;59.10;;;;;;635621;226;26824;-69
2022/03/06 05:03:18;;;;;;;1.92;1.73;;;1.70;59.00;;;;;;635588;226;26623;-69
2022/03/06 05:05:46;;;;;;;1.87;1.77;;;1.70;59.10;;;;;;635611;226;27129;-70
2022/03/06 05:08:14;;;;;;;2.65;1.98;;;1.60;59.50;;;;;;635585;226;26827;-69
2022/03/06 05:10:41;;;;;;;1.67;1.58;;;1.60;59.70;;;;;;635632;226;26579;-69
2022/03/06 05:13:09;;;;;;;1.70;1.60;;;1.50;59.50;;;;;;635376;226;26812;-69
2022/03/06 05:15:36;;;;;;;1.83;1.73;;;1.50;60.20;;;;;;635225;226;26536;-69
2022/03/06 05:18:03;;;;;;;2.00;1.90;;;1.50;59.90;;;;;;635355;226;26528;-70
2022/03/06 05:20:30;;;;;;;1.42;1.42;;;1.50;59.80;;;;;;635384;226;26532;-69
2022/03/06 05:22:57;;;;;;;2.05;1.95;;;1.30;60.80;;;;;;635282;226;26821;-69
2022/03/06 05:25:25;;;;;;;1.80;1.70;;;1.30;60.40;;;;;;635350;226;26536;-69
2022/03/06 05:27:52;;;;;;;1.80;1.70;;;1.40;61.20;;;;;;635348;226;26501;-69
2022/03/06 05:30:20;;;;;;;2.00;1.80;;;1.50;59.90;;;;;;635402;226;26532;-69
2022/03/06 05:32:47;;;;;;;2.05;1.95;;;1.40;59.80;;;;;;635227;226;26567;-69
2022/03/06 05:35:14;;;;;;;1.95;1.85;;;1.50;59.80;;;;;;635343;226;26580;-69
2022/03/06 05:37:41;;;;;;;1.90;1.80;;;1.70;59.60;;;;;;635313;226;26887;-69
2022/03/06 05:40:08;;;;;;;1.98;1.87;;;1.70;59.40;;;;;;635252;226;26524;-69
2022/03/06 05:42:36;;;;;;;3.62;1.73;;;1.80;59.70;;;;;;635237;226;26855;-69
2022/03/06 05:45:04;;;;;;;1.90;1.80;;;1.80;59.10;;;;;;635253;226;26548;-69
2022/03/06 05:47:32;;;;;;;1.83;1.73;;;1.80;59.00;;;;;;635567;221;26557;-69
2022/03/06 05:50:00;;;;;;;1.77;1.67;;;2.00;57.70;;;;;;636910;225;26585;-69
2022/03/06 05:52:27;;;;;;;2.10;1.92;;;2.00;57.70;;;;;;636433;226;26568;-69
2022/03/06 05:54:54;;;;;;;1.80;1.70;;;2.00;57.30;;;;;;636257;226;26577;-69
2022/03/06 05:57:21;;;;;;;1.70;1.60;;;2.10;57.60;;;;;;636095;226;26827;-69
2022/03/06 05:59:48;;;;;;;1.80;1.70;;;2.20;57.80;;;;;;635979;226;26580;-69
2022/03/06 06:02:16;;;;;;;1.65;1.55;;;2.20;57.40;;;;;;635941;226;26882;-70
2022/03/06 06:04:44;;;;;;;1.60;1.50;;;1.80;57.30;;;;;;635899;226;26632;-69
2022/03/06 06:07:11;;;;;;;1.90;1.80;;;1.90;57.70;;;;;;635705;226;26808;-69
2022/03/06 06:09:39;;;;;;;1.60;1.50;;;2.00;57.30;;;;;;635619;226;26539;-69
2022/03/06 06:12:07;;;;;;;1.52;1.50;;;2.00;57.30;;;;;;635577;225;26569;-69
2022/03/06 06:14:34;;;;;;;1.70;1.60;;;1.80;57.80;;;;;;636020;226;26527;-69
2022/03/06 06:17:02;;;;;;;1.80;1.70;;;1.90;58.10;;;;;;636016;226;26822;-69
2022/03/06 06:19:29;;;;;;;1.80;1.70;;;2.00;57.30;;;;;;636029;226;26812;-69
2022/03/06 06:21:57;;;;;;;1.62;1.52;;;2.10;57.90;;;;;;636011;226;26550;-69
2022/03/06 06:24:24;;;;;;;2.25;1.80;;;2.10;58.00;;;;;;635870;226;26549;-69
2022/03/06 06:26:54;;;;;;;1.70;1.60;;;2.30;58.20;;;;;;635615;226;26568;-69
2022/03/06 06:29:18;;;;;;;1.83;1.73;;;2.40;58.00;;;;;;635072;226;26765;-69
2022/03/06 06:31:45;;;;;;;2.55;1.90;;;2.30;57.80;;;;;;635240;226;26556;-69
2022/03/06 06:34:13;;;;;;;1.83;1.73;;;2.30;57.50;;;;;;635334;226;26765;-69
2022/03/06 06:36:41;;;;;;;2.90;2.00;;;2.20;57.90;;;;;;635364;226;26591;-69
2022/03/06 06:39:11;;;;;;;1.73;1.62;;;2.30;57.20;;;;;;635313;226;26536;-69
2022/03/06 06:41:37;;;;;;;1.73;1.62;;;2.30;57.10;;;;;;635208;226;26601;-69
2022/03/06 06:44:05;;;;;;;1.70;1.60;;;2.50;57.80;;;;;;635215;226;26965;-69
2022/03/06 06:46:32;;;;;;;1.40;1.40;;;2.40;56.90;;;;;;635269;226;26533;-69
2022/03/06 06:48:59;;;;;;;2.03;1.77;;;2.30;57.40;;;;;;635294;226;26754;-69
2022/03/06 06:51:28;;;;;;;2.25;1.52;;;2.30;56.50;;;;;;635309;226;26559;-69
2022/03/06 06:53:55;;;;;;;1.60;1.50;;;2.30;56.40;;;;;;635330;226;26839;-69
2022/03/06 06:56:23;;;;;;;1.70;1.60;;;2.50;56.40;;;;;;635386;226;26589;-69
2022/03/06 06:58:51;;;;;;;1.42;1.40;;;2.40;57.20;;;;;;635369;226;26544;-69
2022/03/06 07:01:19;;;;;;;1.70;1.60;;;2.40;57.20;;;;;;637190;225;26581;-69
2022/03/06 07:03:47;;;;;;;1.83;1.73;;;2.50;57.70;;;;;;636567;226;26564;-70
2022/03/06 07:06:14;;;;;;;1.83;1.73;;;2.60;57.10;;;;;;636289;226;26596;-69
2022/03/06 07:08:42;;;;;;;1.40;1.40;;;2.60;57.50;;;;;;636170;226;26590;-69
2022/03/06 07:11:09;;;;;;;1.75;1.65;;;2.70;57.50;;;;;;635953;226;26813;-70
2022/03/06 07:13:37;;;;;;;1.75;1.65;;;2.60;56.20;;;;;;635940;222;26617;-70
2022/03/06 07:16:04;;;;;;;1.67;1.58;;;2.60;57.10;;;;;;635962;226;26799;-69
2022/03/06 07:18:31;;;;;;;1.83;1.73;;;2.70;57.50;;;;;;635737;226;26542;-69
2022/03/06 07:20:59;;;;;;;1.60;1.50;;;2.60;56.70;;;;;;635640;221;26771;-69
2022/03/06 07:23:26;;;;;;;1.70;1.60;;;2.70;57.50;;;;;;635562;226;26639;-70
2022/03/06 07:25:53;;;;;;;1.80;1.70;;;2.80;57.50;;;;;;635696;226;26897;-70
2022/03/06 07:28:21;;;;;;;1.55;1.45;;;2.70;57.00;;;;;;635638;226;26578;-70
2022/03/06 07:30:49;;;;;;;1.83;1.73;;;2.70;58.00;;;;;;635636;226;26586;-71
2022/03/06 07:33:17;;;;;;;1.55;1.52;;;2.90;58.20;;;;;;635553;226;26563;-70
2022/03/06 07:35:45;;;;;;;1.58;1.58;;;2.70;57.50;;;;;;635452;226;26804;-70
2022/03/06 07:38:12;;;;;;;1.50;1.45;;;2.70;57.50;;;;;;635270;226;26807;-70
2022/03/06 07:40:39;;;;;;;1.85;1.75;;;2.60;57.30;;;;;;635261;226;26517;-70
2022/03/06 07:43:06;;;;;;;1.85;1.70;;;2.50;57.80;;;;;;635185;226;26552;-69
2022/03/06 07:45:34;;;;;;;1.30;1.30;;;2.30;58.90;;;;;;635323;226;26536;-70
2022/03/06 07:48:04;;;;;;;1.55;1.55;;;2.20;59.30;;;;;;635255;226;26540;-70
2022/03/06 07:50:29;;;;;;;1.52;1.50;;;2.20;59.20;;;;;;635250;226;26820;-70
2022/03/06 07:52:57;;;;;;;1.90;1.80;;;2.30;59.80;;;;;;635162;226;26567;-70
2022/03/06 07:55:24;;;;;;;1.33;1.33;;;2.20;59.80;;;;;;635286;226;26774;-71
2022/03/06 07:57:52;;;;;;;1.60;1.50;;;2.00;59.60;;;;;;635308;226;26539;-71
2022/03/06 08:00:20;;;;;;;1.77;1.67;;;2.20;60.30;;;;;;635284;226;26528;-71
2022/03/06 08:02:48;;;;;;;1.60;1.50;;;2.20;61.10;;;;;;635244;226;26556;-71
2022/03/06 08:05:15;;;;;;;1.40;1.40;;;2.20;60.40;;;;;;635322;226;26834;-71
2022/03/06 08:07:42;;;;;;;1.65;1.60;;;2.40;60.60;;;;;;635313;226;26529;-71
2022/03/06 08:10:09;;;;;;;1.27;1.27;;;2.50;60.10;;;;;;635340;226;26818;-71
2022/03/06 08:12:37;;;;;;;1.70;1.60;;;2.50;60.60;;;;;;636913;224;26945;-69
2022/03/06 08:15:04;;;;;;;1.73;1.62;;;2.30;59.50;;;;;;636579;225;26508;-70
2022/03/06 08:17:31;;;;;;;1.77;1.67;;;2.10;60.00;;;;;;636275;226;26615;-70
2022/03/06 08:20:00;;;;;;;1.45;1.45;;;2.00;61.20;;;;;;636098;226;26606;-70
2022/03/06 08:22:27;;;;;;;1.60;1.50;;;2.00;61.10;;;;;;635850;226;26834;-70
2022/03/06 08:24:54;;;;;;;1.58;1.48;;;2.20;62.00;;;;;;635935;226;26553;-69
2022/03/06 08:27:22;;;;;;;1.58;1.50;;;2.50;61.40;;;;;;635967;226;26601;-71
2022/03/06 08:29:49;;;;;;;1.62;1.52;;;2.60;61.30;;;;;;635732;226;26541;-71
2022/03/06 08:32:17;;;;;;;1.50;1.40;;;2.50;60.80;;;;;;635553;226;26771;-71
2022/03/06 08:34:44;;;;;;;1.50;1.40;;;2.40;61.60;;;;;;635580;226;26582;-70
2022/03/06 08:37:11;;;;;;;1.30;1.30;;;2.40;62.30;;;;;;635606;226;26514;-70
2022/03/06 08:39:39;;;;;;;1.40;1.40;;;2.50;62.30;;;;;;635629;226;26525;-70
2022/03/06 08:42:07;;;;;;;1.30;1.30;;;2.50;62.20;;;;;;635606;226;26569;-70
2022/03/06 08:44:34;;;;;;;1.60;1.50;;;2.50;62.20;;;;;;635607;226;26556;-70
2022/03/06 08:47:01;;;;;;;1.67;1.58;;;2.60;63.00;;;;;;635516;226;26748;-70
2022/03/06 08:49:28;;;;;;;1.55;1.45;;;2.60;62.80;;;;;;635194;226;26536;-70
2022/03/06 08:51:56;;;;;;;1.60;1.50;;;2.30;62.90;;;;;;635129;226;26556;-70
2022/03/06 08:54:24;;;;;;;7.80;2.15;;;2.10;64.40;;;;;;635198;226;26549;-72
2022/03/06 08:56:51;;;;;;;1.90;1.80;;;2.10;64.40;;;;;;635291;226;26560;-72
2022/03/06 08:59:20;;;;;;;1.70;1.60;;;2.40;64.10;;;;;;635256;226;26549;-72
2022/03/06 09:01:48;;;;;;;2.08;1.58;;;2.40;63.80;;;;;;635240;226;26536;-73
2022/03/06 09:04:15;;;;;;;1.60;1.50;;;2.40;63.80;;;;;;635261;226;26536;-72
2022/03/06 09:06:42;;;;;;;2.03;1.70;;;2.50;64.20;;;;;;635302;226;26532;-72
2022/03/06 09:09:10;;;;;;;2.67;1.60;;;2.90;63.90;;;;;;635291;226;26552;-72
2022/03/06 09:11:37;;;;;;;2.85;1.70;;;2.90;63.20;;;;;;635274;226;27151;-72
2022/03/06 09:14:07;;;;;;;2.45;1.55;;;2.80;62.70;;;;;;635335;226;26561;-72
2022/03/06 09:16:34;;;;;;;2.60;1.70;;;2.90;63.10;;;;;;635316;226;26544;-72
2022/03/06 09:19:03;;;;;;;2.03;1.87;;;2.80;62.90;;;;;;635253;226;26556;-73
2022/03/06 09:21:29;;;;;;;97.90;46.35;;;3.20;63.10;;;;;;625677;226;26541;-73
2022/03/06 09:23:57;;;;;;;464.30;241.93;;;3.40;61.10;;;;;;636719;224;26617;-72
2022/03/06 09:26:25;;;;;;;554.30;324.25;;;3.40;62.60;;;;;;636483;226;26544;-72
2022/03/06 09:28:53;;;;;;;566.35;333.20;;;3.40;62.60;;;;;;636189;226;26609;-71
2022/03/06 09:31:22;;;;;;;541.08;313.87;;;3.30;60.80;;;;;;636114;222;26827;-72
2022/03/06 09:33:48;;;;;;;497.83;277.25;;;3.30;61.20;;;;;;635961;221;26817;-71
2022/03/06 09:36:15;;;;;;;478.02;267.50;;;3.20;60.70;;;;;;636027;226;26573;-73
2022/03/06 09:38:42;;;;;;;422.65;209.25;;;3.20;60.80;;;;;;635989;226;26822;-73
2022/03/06 09:41:09;;;;;;;420.50;218.95;;;3.30;61.40;;;;;;635733;226;26555;-73
2022/03/06 09:43:37;;;;;;;417.30;212.05;;;3.50;60.00;;;;;;629348;222;27091;-74
2022/03/06 09:46:04;;;;;;;387.33;187.70;;;3.80;60.80;;;;;;625177;229;26590;-74
2022/03/06 09:48:32;;;;;;;360.77;178.25;;;3.70;60.00;;;;;;624951;229;26546;-74
2022/03/06 09:51:01;;;;;;;338.20;164.55;;;3.70;59.10;;;;;;624070;228;26590;-74
2022/03/06 09:53:29;;;;;;;314.90;146.23;;;3.60;58.70;;;;;;627444;224;26556;-74
2022/03/06 09:55:57;;;;;;;312.30;151.15;;;3.40;58.90;;;;;;631610;226;26585;-73
2022/03/06 09:58:26;;;;;;;289.38;142.02;;;3.50;58.50;;;;;;624857;229;26608;-73
2022/03/06 10:00:52;;;;;;;288.30;135.63;;;3.50;58.50;;;;;;624550;229;26574;-71
2022/03/06 10:03:20;;;;;;;280.62;137.30;;;3.60;58.80;;;;;;624036;226;26858;-71
2022/03/06 10:05:47;;;;;;;277.55;138.48;;;3.40;59.20;;;;;;632536;226;26562;-72
2022/03/06 10:08:15;;;;;;;284.23;135.23;;;3.60;59.30;;;;;;624767;230;26861;-72
2022/03/06 10:10:42;;;;;;;269.45;133.60;;;3.30;58.80;;;;;;624396;224;26588;-69
2022/03/06 10:13:18;;;;;;;252.25;121.37;;;3.70;59.10;;;;;;633498;226;26573;-71
2022/03/06 10:15:58;;;;;;;222.88;106.37;;;3.90;58.40;;;;;;630831;227;26596;-70
2022/03/06 10:18:26;;;;;;;204.55;99.97;;;3.60;57.40;;;;;;621653;230;26557;-70
2022/03/06 10:20:54;;;;;;;196.57;96.22;;;3.90;58.10;;;;;;623637;229;26623;-70
2022/03/06 10:23:24;;;;;;;189.27;92.88;;;4.10;57.50;;;;;;626381;226;26596;-71
2022/03/06 10:26:02;;;;;;;185.20;88.28;;;4.20;57.80;;;;;;631725;221;26539;-71
2022/03/06 10:28:30;;;;;;;187.05;87.03;;;4.20;57.80;;;;;;622925;229;26792;-70
2022/03/06 10:31:03;;;;;;;172.02;80.18;;;4.00;56.30;;;;;;632020;226;26591;-70
2022/03/06 10:33:31;;;;;;;160.50;80.32;;;3.90;56.20;;;;;;633900;225;26614;-69
2022/03/06 10:36:02;;;;;;;158.82;77.30;;;3.80;55.70;;;;;;625746;228;26583;-70
2022/03/06 10:38:31;;;;;;;156.68;74.75;;;4.00;56.10;;;;;;626406;226;26597;-70
2022/03/06 10:40:59;;;;;;;153.45;74.82;;;4.00;56.10;;;;;;633042;226;26790;-70
2022/03/06 10:43:27;;;;;;;140.25;69.37;;;4.10;57.40;;;;;;625932;226;26635;-69
2022/03/06 10:46:06;;;;;;;144.00;67.97;;;4.20;56.10;;;;;;623199;229;26541;-70
2022/03/06 10:48:33;;;;;;;223.18;82.40;;;4.20;56.20;;;;;;623331;229;26552;-70
2022/03/06 10:51:00;;;;;;;249.60;88.90;;;4.20;55.70;;;;;;623488;231;26751;-68
2022/03/06 10:53:28;;;;;;;248.55;90.87;;;4.00;56.00;;;;;;623299;229;26603;-69
2022/03/06 10:55:56;;;;;;;216.23;81.45;;;4.40;55.80;;;;;;623215;229;26924;-71
2022/03/06 10:58:23;;;;;;;202.05;75.35;;;4.30;55.30;;;;;;623411;229;27185;-72
2022/03/06 11:00:50;;;;;;;200.52;69.55;;;4.40;56.60;;;;;;623242;229;26583;-71
2022/03/06 11:03:17;;;;;;;173.38;65.25;;;3.80;54.80;;;;;;623183;229;26853;-71
2022/03/06 11:05:44;;;;;;;150.38;58.87;;;3.80;55.80;;;;;;623297;229;26591;-73
2022/03/06 11:08:14;;;;;;;169.00;65.87;;;4.10;54.70;;;;;;623279;229;26799;-69
2022/03/06 11:10:43;;;;;;;146.90;57.03;;;4.40;56.20;;;;;;623093;229;26571;-71
2022/03/06 11:13:11;;;;;;;142.23;59.58;;;4.40;55.90;;;;;;622911;229;26607;-72
2022/03/06 11:15:38;;;;;;;132.35;53.95;;;4.70;54.80;;;;;;622845;229;26838;-73
2022/03/06 11:18:06;;;;;;;123.25;52.83;;;4.80;54.10;;;;;;622968;229;26590;-73
2022/03/06 11:20:33;;;;;;;108.70;49.75;;;5.00;53.30;;;;;;622984;229;26802;-73
2022/03/06 11:23:13;;;;;;;83.60;41.92;;;5.10;53.70;;;;;;622862;229;26573;-74
2022/03/06 11:25:40;;;;;;;68.97;34.58;;;5.00;53.20;;;;;;622987;229;26773;-76
2022/03/06 11:28:26;;;;;;;74.05;34.33;;;5.30;53.40;;;;;;623125;227;26522;-74
2022/03/06 11:30:53;;;;;;;57.15;30.08;;;5.20;52.30;;;;;;623237;229;26568;-73
2022/03/06 11:33:21;;;;;;;58.40;30.35;;;5.10;51.60;;;;;;623088;229;26564;-73
2022/03/06 11:35:48;;;;;;;57.90;28.98;;;4.60;51.70;;;;;;623337;229;26795;-73
2022/03/06 11:38:18;;;;;;;56.83;28.60;;;4.70;51.70;;;;;;623352;229;26541;-73
2022/03/06 11:40:48;;;;;;;52.80;26.58;;;4.80;51.70;;;;;;623033;229;26805;-73
2022/03/06 11:43:25;;;;;;;52.97;26.98;;;5.10;51.30;;;;;;622940;229;26762;-73
2022/03/06 11:45:54;;;;;;;51.35;25.70;;;4.50;50.20;;;;;;623269;228;26605;-73
2022/03/06 11:48:48;;;;;;;45.75;24.00;;;4.40;50.20;;;;;;624481;228;26603;-74
2022/03/06 11:51:19;;;;;;;44.25;24.48;;;4.70;51.00;;;;;;624535;229;26598;-73
2022/03/06 11:53:50;;;;;;;43.13;23.38;;;4.70;51.00;;;;;;623938;229;26614;-73
2022/03/06 11:56:30;;;;;;;41.00;21.42;;;5.00;50.20;;;;;;623571;228;26543;-73
2022/03/06 11:58:57;;;;;;;40.00;20.85;;;5.00;50.20;;;;;;623456;229;26551;-70
2022/03/06 12:01:26;;;;;;;35.40;20.65;;;4.60;50.10;;;;;;623532;229;26551;-71
2022/03/06 12:03:54;;;;;;;31.05;18.55;;;4.50;50.10;;;;;;623453;231;26792;-69
2022/03/06 12:06:22;;;;;;;30.98;17.73;;;4.80;51.80;;;;;;623332;229;26792;-72
2022/03/06 12:08:49;;;;;;;35.08;17.62;;;5.20;51.30;;;;;;623210;229;26595;-72
2022/03/06 12:11:17;;;;;;;33.53;17.17;;;5.10;50.50;;;;;;623124;229;26932;-72
2022/03/06 12:13:44;;;;;;;32.40;16.42;;;5.10;50.50;;;;;;623230;229;26806;-70
2022/03/06 12:16:13;;;;;;;28.00;16.02;;;4.90;51.10;;;;;;622971;226;26576;-71
2022/03/06 12:18:39;;;;;;;28.33;15.05;;;5.10;50.90;;;;;;623201;229;27132;-71
2022/03/06 12:21:22;;;;;;;24.23;14.07;;;5.00;50.30;;;;;;623217;229;26583;-71
2022/03/06 12:23:50;;;;;;;23.55;13.02;;;4.90;51.00;;;;;;622944;230;26616;-71
2022/03/06 12:26:17;;;;;;;22.98;12.90;;;5.10;51.90;;;;;;621605;227;26613;-72
2022/03/06 12:28:44;;;;;;;22.00;11.82;;;5.10;52.10;;;;;;621407;229;26806;-72
2022/03/06 12:31:23;;;;;;;20.80;12.30;;;5.20;51.60;;;;;;622959;229;26597;-72
2022/03/06 12:33:50;;;;;;;19.12;11.32;;;5.10;51.60;;;;;;622949;229;26611;-71
2022/03/06 12:36:20;;;;;;;15.98;10.45;;;5.30;51.10;;;;;;622824;229;26598;-72
2022/03/06 12:38:45;;;;;;;17.12;10.93;;;5.30;52.20;;;;;;622745;229;26591;-72
2022/03/06 12:41:13;;;;;;;18.10;10.55;;;5.20;51.00;;;;;;622852;231;27224;-72
2022/03/06 12:43:44;;;;;;;20.55;9.95;;;4.50;51.50;;;;;;622863;229;26627;-72
2022/03/06 12:46:12;;;;;;;17.40;9.45;;;4.80;52.60;;;;;;622922;228;26550;-72
2022/03/06 12:48:40;;;;;;;13.88;8.80;;;5.00;52.20;;;;;;622951;229;26575;-72
2022/03/06 12:51:07;;;;;;;15.10;8.95;;;5.00;52.20;;;;;;622908;229;26807;-71
2022/03/06 12:53:34;;;;;;;14.95;8.40;;;4.90;52.40;;;;;;622992;230;26641;-71